sensor_id;sensor_type;location;lat;lon;timestamp;P1;durP1;ratioP1;P2;durP2;ratioP2
75820;SDS011;64454;51.984;9.838;2024-03-08T00:02:24;18.05;;;13.80;;
75820;SDS011;64454;51.984;9.838;2024-03-08T00:04:50;18.60;;;13.10;;
75820;SDS011;64454;51.984;9.838;2024-03-08T00:07:16;15.30;;;11.90;;
75820;SDS011;64454;51.984;9.838;2024-03-08T00:09:42;16.83;;;12.90;;
75820;SDS011;64454;51.984;9.838;2024-03-08T00:12:08;18.48;;;14.10;;
75820;SDS011;64454;51.984;9.838;2024-03-08T00:14:35;17.95;;;12.77;;
75820;SDS011;64454;51.984;9.838;2024-03-08T00:17:02;16.67;;;12.63;;
75820;SDS011;64454;51.984;9.838;2024-03-08T00:19:29;17.30;;;12.80;;
75820;SDS011;64454;51.984;9.838;2024-03-08T00:21:55;19.25;;;13.32;;
75820;SDS011;64454;51.984;9.838;2024-03-08T00:24:21;18.35;;;14.20;;
75820;SDS011;64454;51.984;9.838;2024-03-08T00:26:50;16.45;;;12.98;;
75820;SDS011;64454;51.984;9.838;2024-03-08T00:29:16;20.23;;;13.65;;
75820;SDS011;64454;51.984;9.838;2024-03-08T00:31:42;18.55;;;13.88;;
75820;SDS011;64454;51.984;9.838;2024-03-08T00:34:08;17.17;;;12.82;;
75820;SDS011;64454;51.984;9.838;2024-03-08T00:36:37;21.35;;;14.25;;
75820;SDS011;64454;51.984;9.838;2024-03-08T00:39:04;16.83;;;12.53;;
75820;SDS011;64454;51.984;9.838;2024-03-08T00:41:31;17.58;;;13.15;;
75820;SDS011;64454;51.984;9.838;2024-03-08T00:43:57;17.98;;;12.93;;
75820;SDS011;64454;51.984;9.838;2024-03-08T00:46:24;19.05;;;13.93;;
75820;SDS011;64454;51.984;9.838;2024-03-08T00:48:50;19.27;;;13.93;;
75820;SDS011;64454;51.984;9.838;2024-03-08T00:51:16;20.77;;;13.73;;
75820;SDS011;64454;51.984;9.838;2024-03-08T00:53:42;20.17;;;13.82;;
75820;SDS011;64454;51.984;9.838;2024-03-08T00:56:08;19.90;;;13.10;;
75820;SDS011;64454;51.984;9.838;2024-03-08T00:58:35;17.25;;;12.80;;
75820;SDS011;64454;51.984;9.838;2024-03-08T01:01:02;18.63;;;13.68;;
75820;SDS011;64454;51.984;9.838;2024-03-08T01:03:29;21.73;;;13.77;;
75820;SDS011;64454;51.984;9.838;2024-03-08T01:05:56;16.50;;;12.18;;
75820;SDS011;64454;51.984;9.838;2024-03-08T01:08:22;25.60;;;13.73;;
75820;SDS011;64454;51.984;9.838;2024-03-08T01:10:49;18.70;;;13.70;;
75820;SDS011;64454;51.984;9.838;2024-03-08T01:13:15;17.80;;;12.70;;
75820;SDS011;64454;51.984;9.838;2024-03-08T01:15:41;17.88;;;12.85;;
75820;SDS011;64454;51.984;9.838;2024-03-08T01:18:07;17.33;;;12.90;;
75820;SDS011;64454;51.984;9.838;2024-03-08T01:20:35;17.83;;;12.98;;
75820;SDS011;64454;51.984;9.838;2024-03-08T01:23:01;16.50;;;12.85;;
75820;SDS011;64454;51.984;9.838;2024-03-08T01:25:27;17.50;;;13.48;;
75820;SDS011;64454;51.984;9.838;2024-03-08T01:27:53;20.65;;;12.85;;
75820;SDS011;64454;51.984;9.838;2024-03-08T01:30:19;18.85;;;12.18;;
75820;SDS011;64454;51.984;9.838;2024-03-08T01:32:45;16.48;;;12.07;;
75820;SDS011;64454;51.984;9.838;2024-03-08T01:35:11;17.85;;;13.30;;
75820;SDS011;64454;51.984;9.838;2024-03-08T01:37:38;18.73;;;13.53;;
75820;SDS011;64454;51.984;9.838;2024-03-08T01:40:04;18.17;;;13.07;;
75820;SDS011;64454;51.984;9.838;2024-03-08T01:42:33;16.80;;;12.40;;
75820;SDS011;64454;51.984;9.838;2024-03-08T01:45:03;18.50;;;12.98;;
75820;SDS011;64454;51.984;9.838;2024-03-08T01:47:31;19.13;;;12.98;;
75820;SDS011;64454;51.984;9.838;2024-03-08T01:49:57;22.25;;;14.32;;
75820;SDS011;64454;51.984;9.838;2024-03-08T01:52:25;17.48;;;14.02;;
75820;SDS011;64454;51.984;9.838;2024-03-08T01:54:51;18.43;;;12.97;;
75820;SDS011;64454;51.984;9.838;2024-03-08T01:57:17;17.88;;;13.68;;
75820;SDS011;64454;51.984;9.838;2024-03-08T01:59:44;21.20;;;15.10;;
75820;SDS011;64454;51.984;9.838;2024-03-08T02:02:10;21.15;;;14.65;;
75820;SDS011;64454;51.984;9.838;2024-03-08T02:04:40;21.77;;;14.57;;
75820;SDS011;64454;51.984;9.838;2024-03-08T02:07:06;19.00;;;13.95;;
75820;SDS011;64454;51.984;9.838;2024-03-08T02:09:32;16.58;;;13.85;;
75820;SDS011;64454;51.984;9.838;2024-03-08T02:11:58;17.83;;;13.73;;
75820;SDS011;64454;51.984;9.838;2024-03-08T02:14:25;19.27;;;14.47;;
75820;SDS011;64454;51.984;9.838;2024-03-08T02:16:51;21.20;;;14.40;;
75820;SDS011;64454;51.984;9.838;2024-03-08T02:19:17;21.13;;;14.50;;
75820;SDS011;64454;51.984;9.838;2024-03-08T02:21:45;18.17;;;13.48;;
75820;SDS011;64454;51.984;9.838;2024-03-08T02:24:12;21.02;;;15.27;;
75820;SDS011;64454;51.984;9.838;2024-03-08T02:26:38;19.00;;;13.80;;
75820;SDS011;64454;51.984;9.838;2024-03-08T02:29:04;19.17;;;13.40;;
75820;SDS011;64454;51.984;9.838;2024-03-08T02:31:31;18.15;;;12.82;;
75820;SDS011;64454;51.984;9.838;2024-03-08T02:33:58;19.70;;;13.32;;
75820;SDS011;64454;51.984;9.838;2024-03-08T02:36:24;18.60;;;13.27;;
75820;SDS011;64454;51.984;9.838;2024-03-08T02:38:51;18.40;;;13.93;;
75820;SDS011;64454;51.984;9.838;2024-03-08T02:41:17;20.67;;;14.40;;
75820;SDS011;64454;51.984;9.838;2024-03-08T02:43:43;16.88;;;13.18;;
75820;SDS011;64454;51.984;9.838;2024-03-08T02:46:10;19.08;;;13.45;;
75820;SDS011;64454;51.984;9.838;2024-03-08T02:48:36;19.17;;;13.25;;
75820;SDS011;64454;51.984;9.838;2024-03-08T02:51:02;18.83;;;14.25;;
75820;SDS011;64454;51.984;9.838;2024-03-08T02:53:30;19.92;;;14.43;;
75820;SDS011;64454;51.984;9.838;2024-03-08T02:55:57;18.73;;;13.93;;
75820;SDS011;64454;51.984;9.838;2024-03-08T02:58:23;19.20;;;13.38;;
75820;SDS011;64454;51.984;9.838;2024-03-08T03:00:49;18.10;;;13.73;;
75820;SDS011;64454;51.984;9.838;2024-03-08T03:03:15;20.17;;;14.20;;
75820;SDS011;64454;51.984;9.838;2024-03-08T03:05:41;19.50;;;13.65;;
75820;SDS011;64454;51.984;9.838;2024-03-08T03:08:07;20.45;;;13.35;;
75820;SDS011;64454;51.984;9.838;2024-03-08T03:10:34;19.88;;;15.13;;
75820;SDS011;64454;51.984;9.838;2024-03-08T03:13:01;20.27;;;14.80;;
75820;SDS011;64454;51.984;9.838;2024-03-08T03:15:29;22.52;;;14.85;;
75820;SDS011;64454;51.984;9.838;2024-03-08T03:17:55;20.60;;;15.00;;
75820;SDS011;64454;51.984;9.838;2024-03-08T03:20:21;21.60;;;14.57;;
75820;SDS011;64454;51.984;9.838;2024-03-08T03:22:51;19.08;;;14.45;;
75820;SDS011;64454;51.984;9.838;2024-03-08T03:25:18;18.73;;;13.98;;
75820;SDS011;64454;51.984;9.838;2024-03-08T03:27:50;19.48;;;14.45;;
75820;SDS011;64454;51.984;9.838;2024-03-08T03:30:18;24.30;;;16.73;;
75820;SDS011;64454;51.984;9.838;2024-03-08T03:32:47;21.42;;;16.20;;
75820;SDS011;64454;51.984;9.838;2024-03-08T03:35:13;22.02;;;15.48;;
75820;SDS011;64454;51.984;9.838;2024-03-08T03:37:40;22.33;;;15.90;;
75820;SDS011;64454;51.984;9.838;2024-03-08T03:40:08;20.50;;;15.40;;
75820;SDS011;64454;51.984;9.838;2024-03-08T03:42:34;18.85;;;14.23;;
75820;SDS011;64454;51.984;9.838;2024-03-08T03:45:03;22.57;;;14.93;;
75820;SDS011;64454;51.984;9.838;2024-03-08T03:47:31;21.70;;;14.75;;
75820;SDS011;64454;51.984;9.838;2024-03-08T03:49:57;24.30;;;15.60;;
75820;SDS011;64454;51.984;9.838;2024-03-08T03:52:26;25.58;;;16.98;;
75820;SDS011;64454;51.984;9.838;2024-03-08T03:54:53;24.25;;;16.33;;
75820;SDS011;64454;51.984;9.838;2024-03-08T03:57:19;21.50;;;14.73;;
75820;SDS011;64454;51.984;9.838;2024-03-08T03:59:45;21.40;;;15.30;;
75820;SDS011;64454;51.984;9.838;2024-03-08T04:02:12;24.10;;;16.50;;
75820;SDS011;64454;51.984;9.838;2024-03-08T04:04:39;23.23;;;16.63;;
75820;SDS011;64454;51.984;9.838;2024-03-08T04:07:05;25.27;;;15.40;;
75820;SDS011;64454;51.984;9.838;2024-03-08T04:09:31;22.65;;;16.52;;
75820;SDS011;64454;51.984;9.838;2024-03-08T04:12:00;19.83;;;15.00;;
75820;SDS011;64454;51.984;9.838;2024-03-08T04:14:26;20.83;;;14.60;;
75820;SDS011;64454;51.984;9.838;2024-03-08T04:16:52;22.30;;;15.83;;
75820;SDS011;64454;51.984;9.838;2024-03-08T04:19:18;21.13;;;15.40;;
75820;SDS011;64454;51.984;9.838;2024-03-08T04:21:45;23.48;;;16.15;;
75820;SDS011;64454;51.984;9.838;2024-03-08T04:24:12;21.35;;;15.30;;
75820;SDS011;64454;51.984;9.838;2024-03-08T04:26:38;22.52;;;15.48;;
75820;SDS011;64454;51.984;9.838;2024-03-08T04:29:04;21.73;;;15.65;;
75820;SDS011;64454;51.984;9.838;2024-03-08T04:31:30;23.02;;;15.05;;
75820;SDS011;64454;51.984;9.838;2024-03-08T04:33:56;23.25;;;15.27;;
75820;SDS011;64454;51.984;9.838;2024-03-08T04:36:22;22.52;;;14.93;;
75820;SDS011;64454;51.984;9.838;2024-03-08T04:38:50;19.95;;;15.00;;
75820;SDS011;64454;51.984;9.838;2024-03-08T04:41:16;20.98;;;15.23;;
75820;SDS011;64454;51.984;9.838;2024-03-08T04:43:43;23.00;;;15.65;;
75820;SDS011;64454;51.984;9.838;2024-03-08T04:46:09;24.17;;;16.43;;
75820;SDS011;64454;51.984;9.838;2024-03-08T04:48:35;21.67;;;15.38;;
75820;SDS011;64454;51.984;9.838;2024-03-08T04:51:02;20.55;;;14.90;;
75820;SDS011;64454;51.984;9.838;2024-03-08T04:53:29;20.43;;;13.90;;
75820;SDS011;64454;51.984;9.838;2024-03-08T04:55:55;19.95;;;14.05;;
75820;SDS011;64454;51.984;9.838;2024-03-08T04:58:23;22.40;;;15.48;;
75820;SDS011;64454;51.984;9.838;2024-03-08T05:00:49;20.58;;;15.32;;
75820;SDS011;64454;51.984;9.838;2024-03-08T05:03:15;20.95;;;14.77;;
75820;SDS011;64454;51.984;9.838;2024-03-08T05:05:41;21.90;;;15.07;;
75820;SDS011;64454;51.984;9.838;2024-03-08T05:08:07;19.45;;;13.80;;
75820;SDS011;64454;51.984;9.838;2024-03-08T05:10:34;20.00;;;15.00;;
75820;SDS011;64454;51.984;9.838;2024-03-08T05:13:00;21.08;;;15.02;;
75820;SDS011;64454;51.984;9.838;2024-03-08T05:15:26;21.90;;;14.70;;
75820;SDS011;64454;51.984;9.838;2024-03-08T05:17:52;20.55;;;14.73;;
75820;SDS011;64454;51.984;9.838;2024-03-08T05:20:18;19.15;;;14.40;;
75820;SDS011;64454;51.984;9.838;2024-03-08T05:22:44;20.67;;;14.73;;
75820;SDS011;64454;51.984;9.838;2024-03-08T05:25:11;19.35;;;13.55;;
75820;SDS011;64454;51.984;9.838;2024-03-08T05:27:39;19.27;;;15.02;;
75820;SDS011;64454;51.984;9.838;2024-03-08T05:30:06;21.30;;;15.13;;
75820;SDS011;64454;51.984;9.838;2024-03-08T05:32:38;21.63;;;14.10;;
75820;SDS011;64454;51.984;9.838;2024-03-08T05:35:05;21.25;;;15.40;;
75820;SDS011;64454;51.984;9.838;2024-03-08T05:37:32;22.00;;;15.75;;
75820;SDS011;64454;51.984;9.838;2024-03-08T05:39:58;23.55;;;15.63;;
75820;SDS011;64454;51.984;9.838;2024-03-08T05:42:24;22.10;;;15.30;;
75820;SDS011;64454;51.984;9.838;2024-03-08T05:44:50;22.45;;;15.82;;
75820;SDS011;64454;51.984;9.838;2024-03-08T05:47:16;25.55;;;16.58;;
75820;SDS011;64454;51.984;9.838;2024-03-08T05:49:43;27.77;;;17.98;;
75820;SDS011;64454;51.984;9.838;2024-03-08T05:52:09;25.98;;;17.92;;
75820;SDS011;64454;51.984;9.838;2024-03-08T05:54:35;22.10;;;16.00;;
75820;SDS011;64454;51.984;9.838;2024-03-08T05:57:02;22.77;;;15.93;;
75820;SDS011;64454;51.984;9.838;2024-03-08T05:59:29;23.10;;;16.55;;
75820;SDS011;64454;51.984;9.838;2024-03-08T06:01:55;21.83;;;15.60;;
75820;SDS011;64454;51.984;9.838;2024-03-08T06:04:22;23.20;;;16.25;;
75820;SDS011;64454;51.984;9.838;2024-03-08T06:06:48;22.10;;;15.70;;
75820;SDS011;64454;51.984;9.838;2024-03-08T06:09:16;22.33;;;15.70;;
75820;SDS011;64454;51.984;9.838;2024-03-08T06:11:47;23.00;;;16.10;;
75820;SDS011;64454;51.984;9.838;2024-03-08T06:14:14;26.27;;;17.73;;
75820;SDS011;64454;51.984;9.838;2024-03-08T06:16:43;23.53;;;17.10;;
75820;SDS011;64454;51.984;9.838;2024-03-08T06:19:09;26.63;;;17.95;;
75820;SDS011;64454;51.984;9.838;2024-03-08T06:21:36;23.17;;;15.88;;
75820;SDS011;64454;51.984;9.838;2024-03-08T06:24:02;20.42;;;15.75;;
75820;SDS011;64454;51.984;9.838;2024-03-08T06:26:29;23.30;;;16.98;;
75820;SDS011;64454;51.984;9.838;2024-03-08T06:28:55;22.80;;;16.27;;
75820;SDS011;64454;51.984;9.838;2024-03-08T06:31:22;23.30;;;15.90;;
75820;SDS011;64454;51.984;9.838;2024-03-08T06:33:48;24.70;;;16.27;;
75820;SDS011;64454;51.984;9.838;2024-03-08T06:36:15;23.53;;;16.10;;
75820;SDS011;64454;51.984;9.838;2024-03-08T06:38:44;27.80;;;16.73;;
75820;SDS011;64454;51.984;9.838;2024-03-08T06:41:11;23.67;;;16.85;;
75820;SDS011;64454;51.984;9.838;2024-03-08T06:43:40;21.43;;;16.50;;
75820;SDS011;64454;51.984;9.838;2024-03-08T06:46:07;25.48;;;17.65;;
75820;SDS011;64454;51.984;9.838;2024-03-08T06:48:33;25.55;;;17.52;;
75820;SDS011;64454;51.984;9.838;2024-03-08T06:51:00;25.10;;;16.90;;
75820;SDS011;64454;51.984;9.838;2024-03-08T06:53:26;28.10;;;19.17;;
75820;SDS011;64454;51.984;9.838;2024-03-08T06:55:53;23.88;;;17.88;;
75820;SDS011;64454;51.984;9.838;2024-03-08T06:58:19;28.30;;;20.55;;
75820;SDS011;64454;51.984;9.838;2024-03-08T07:00:45;29.50;;;21.35;;
75820;SDS011;64454;51.984;9.838;2024-03-08T07:03:12;30.73;;;21.67;;
75820;SDS011;64454;51.984;9.838;2024-03-08T07:05:42;29.20;;;20.53;;
75820;SDS011;64454;51.984;9.838;2024-03-08T07:08:08;29.00;;;19.98;;
75820;SDS011;64454;51.984;9.838;2024-03-08T07:10:34;31.13;;;20.97;;
75820;SDS011;64454;51.984;9.838;2024-03-08T07:13:02;29.35;;;19.80;;
75820;SDS011;64454;51.984;9.838;2024-03-08T07:15:29;27.63;;;19.65;;
75820;SDS011;64454;51.984;9.838;2024-03-08T07:17:55;28.20;;;19.75;;
75820;SDS011;64454;51.984;9.838;2024-03-08T07:20:21;30.13;;;20.67;;
75820;SDS011;64454;51.984;9.838;2024-03-08T07:22:47;27.75;;;20.55;;
75820;SDS011;64454;51.984;9.838;2024-03-08T07:25:15;29.02;;;20.35;;
75820;SDS011;64454;51.984;9.838;2024-03-08T07:27:46;27.80;;;20.52;;
75820;SDS011;64454;51.984;9.838;2024-03-08T07:30:13;29.80;;;19.83;;
75820;SDS011;64454;51.984;9.838;2024-03-08T07:33:01;28.80;;;20.50;;
75820;SDS011;64454;51.984;9.838;2024-03-08T07:35:27;28.43;;;20.23;;
75820;SDS011;64454;51.984;9.838;2024-03-08T07:37:54;29.27;;;20.45;;
75820;SDS011;64454;51.984;9.838;2024-03-08T07:40:20;31.27;;;20.20;;
75820;SDS011;64454;51.984;9.838;2024-03-08T07:42:46;26.73;;;19.90;;
75820;SDS011;64454;51.984;9.838;2024-03-08T07:45:12;30.58;;;19.60;;
75820;SDS011;64454;51.984;9.838;2024-03-08T07:47:41;28.33;;;20.25;;
75820;SDS011;64454;51.984;9.838;2024-03-08T07:50:07;30.52;;;20.15;;
75820;SDS011;64454;51.984;9.838;2024-03-08T07:52:34;34.97;;;22.40;;
75820;SDS011;64454;51.984;9.838;2024-03-08T07:55:01;29.27;;;19.83;;
75820;SDS011;64454;51.984;9.838;2024-03-08T07:57:28;28.35;;;20.48;;
75820;SDS011;64454;51.984;9.838;2024-03-08T07:59:54;26.20;;;19.83;;
75820;SDS011;64454;51.984;9.838;2024-03-08T08:02:21;26.42;;;17.77;;
75820;SDS011;64454;51.984;9.838;2024-03-08T08:04:48;23.70;;;17.80;;
75820;SDS011;64454;51.984;9.838;2024-03-08T08:07:14;23.75;;;17.95;;
75820;SDS011;64454;51.984;9.838;2024-03-08T08:09:40;25.50;;;17.87;;
75820;SDS011;64454;51.984;9.838;2024-03-08T08:12:07;23.42;;;18.50;;
75820;SDS011;64454;51.984;9.838;2024-03-08T08:14:36;20.13;;;16.48;;
75820;SDS011;64454;51.984;9.838;2024-03-08T08:17:03;26.63;;;19.17;;
75820;SDS011;64454;51.984;9.838;2024-03-08T08:19:30;21.33;;;17.73;;
75820;SDS011;64454;51.984;9.838;2024-03-08T08:21:56;25.20;;;18.92;;
75820;SDS011;64454;51.984;9.838;2024-03-08T08:24:23;26.00;;;19.77;;
75820;SDS011;64454;51.984;9.838;2024-03-08T08:26:49;24.50;;;18.63;;
75820;SDS011;64454;51.984;9.838;2024-03-08T08:29:15;25.15;;;19.27;;
75820;SDS011;64454;51.984;9.838;2024-03-08T08:31:41;27.55;;;20.00;;
75820;SDS011;64454;51.984;9.838;2024-03-08T08:34:08;25.30;;;20.10;;
75820;SDS011;64454;51.984;9.838;2024-03-08T08:36:37;21.95;;;19.20;;
75820;SDS011;64454;51.984;9.838;2024-03-08T08:39:03;23.35;;;19.08;;
75820;SDS011;64454;51.984;9.838;2024-03-08T08:41:36;23.35;;;18.90;;
75820;SDS011;64454;51.984;9.838;2024-03-08T08:44:02;26.45;;;19.10;;
75820;SDS011;64454;51.984;9.838;2024-03-08T08:46:28;26.25;;;19.67;;
75820;SDS011;64454;51.984;9.838;2024-03-08T08:48:55;22.85;;;18.65;;
75820;SDS011;64454;51.984;9.838;2024-03-08T08:51:21;21.63;;;18.20;;
75820;SDS011;64454;51.984;9.838;2024-03-08T08:53:48;24.50;;;19.80;;
75820;SDS011;64454;51.984;9.838;2024-03-08T08:56:15;22.27;;;19.08;;
75820;SDS011;64454;51.984;9.838;2024-03-08T08:58:41;21.05;;;18.70;;
75820;SDS011;64454;51.984;9.838;2024-03-08T09:01:07;23.00;;;19.63;;
75820;SDS011;64454;51.984;9.838;2024-03-08T09:03:35;20.85;;;17.70;;
75820;SDS011;64454;51.984;9.838;2024-03-08T09:06:02;21.90;;;19.10;;
75820;SDS011;64454;51.984;9.838;2024-03-08T09:08:29;23.90;;;20.03;;
75820;SDS011;64454;51.984;9.838;2024-03-08T09:10:56;20.42;;;18.25;;
75820;SDS011;64454;51.984;9.838;2024-03-08T09:13:22;21.73;;;19.20;;
75820;SDS011;64454;51.984;9.838;2024-03-08T09:15:48;20.70;;;18.00;;
75820;SDS011;64454;51.984;9.838;2024-03-08T09:18:15;23.35;;;20.25;;
75820;SDS011;64454;51.984;9.838;2024-03-08T09:20:41;22.05;;;19.13;;
75820;SDS011;64454;51.984;9.838;2024-03-08T09:23:07;21.85;;;19.48;;
75820;SDS011;64454;51.984;9.838;2024-03-08T09:25:33;22.52;;;20.13;;
75820;SDS011;64454;51.984;9.838;2024-03-08T09:28:00;23.00;;;20.10;;
75820;SDS011;64454;51.984;9.838;2024-03-08T09:30:26;22.35;;;19.67;;
75820;SDS011;64454;51.984;9.838;2024-03-08T09:32:52;21.95;;;19.05;;
75820;SDS011;64454;51.984;9.838;2024-03-08T09:35:18;21.48;;;18.70;;
75820;SDS011;64454;51.984;9.838;2024-03-08T09:37:45;22.42;;;20.02;;
75820;SDS011;64454;51.984;9.838;2024-03-08T09:40:12;22.10;;;19.80;;
75820;SDS011;64454;51.984;9.838;2024-03-08T09:42:40;21.88;;;19.58;;
75820;SDS011;64454;51.984;9.838;2024-03-08T09:45:08;22.88;;;19.88;;
75820;SDS011;64454;51.984;9.838;2024-03-08T09:47:36;21.40;;;19.20;;
75820;SDS011;64454;51.984;9.838;2024-03-08T09:50:05;22.27;;;19.75;;
75820;SDS011;64454;51.984;9.838;2024-03-08T09:52:34;21.42;;;19.23;;
75820;SDS011;64454;51.984;9.838;2024-03-08T09:55:01;20.98;;;18.77;;
75820;SDS011;64454;51.984;9.838;2024-03-08T09:57:29;22.13;;;19.73;;
75820;SDS011;64454;51.984;9.838;2024-03-08T09:59:55;20.70;;;18.52;;
75820;SDS011;64454;51.984;9.838;2024-03-08T10:02:22;21.85;;;19.60;;
75820;SDS011;64454;51.984;9.838;2024-03-08T10:04:48;22.42;;;19.35;;
75820;SDS011;64454;51.984;9.838;2024-03-08T10:07:18;21.53;;;19.23;;
75820;SDS011;64454;51.984;9.838;2024-03-08T10:09:44;21.20;;;18.90;;
75820;SDS011;64454;51.984;9.838;2024-03-08T10:12:15;21.85;;;19.55;;
75820;SDS011;64454;51.984;9.838;2024-03-08T10:14:42;20.97;;;18.77;;
75820;SDS011;64454;51.984;9.838;2024-03-08T10:17:09;19.73;;;17.73;;
75820;SDS011;64454;51.984;9.838;2024-03-08T10:19:36;21.77;;;19.25;;
75820;SDS011;64454;51.984;9.838;2024-03-08T10:22:02;19.77;;;17.63;;
75820;SDS011;64454;51.984;9.838;2024-03-08T10:24:29;19.50;;;17.40;;
75820;SDS011;64454;51.984;9.838;2024-03-08T10:26:58;20.77;;;18.60;;
75820;SDS011;64454;51.984;9.838;2024-03-08T10:29:25;21.30;;;19.20;;
75820;SDS011;64454;51.984;9.838;2024-03-08T10:31:51;20.55;;;18.42;;
75820;SDS011;64454;51.984;9.838;2024-03-08T10:34:17;21.38;;;18.30;;
75820;SDS011;64454;51.984;9.838;2024-03-08T10:36:45;22.40;;;20.00;;
75820;SDS011;64454;51.984;9.838;2024-03-08T10:39:22;21.10;;;18.80;;
75820;SDS011;64454;51.984;9.838;2024-03-08T10:41:52;21.23;;;18.20;;
75820;SDS011;64454;51.984;9.838;2024-03-08T10:44:40;20.67;;;18.05;;
75820;SDS011;64454;51.984;9.838;2024-03-08T10:47:18;21.08;;;18.77;;
75820;SDS011;64454;51.984;9.838;2024-03-08T10:49:52;20.50;;;18.35;;
75820;SDS011;64454;51.984;9.838;2024-03-08T10:52:29;25.27;;;22.67;;
75820;SDS011;64454;51.984;9.838;2024-03-08T10:54:56;20.55;;;18.45;;
75820;SDS011;64454;51.984;9.838;2024-03-08T10:57:24;20.83;;;18.00;;
75820;SDS011;64454;51.984;9.838;2024-03-08T10:59:52;20.30;;;18.10;;
75820;SDS011;64454;51.984;9.838;2024-03-08T11:02:20;20.48;;;18.38;;
75820;SDS011;64454;51.984;9.838;2024-03-08T11:04:46;20.35;;;18.15;;
75820;SDS011;64454;51.984;9.838;2024-03-08T11:07:14;21.85;;;17.65;;
75820;SDS011;64454;51.984;9.838;2024-03-08T11:09:45;23.30;;;18.13;;
75820;SDS011;64454;51.984;9.838;2024-03-08T11:12:20;21.80;;;18.58;;
75820;SDS011;64454;51.984;9.838;2024-03-08T11:14:51;20.45;;;18.15;;
75820;SDS011;64454;51.984;9.838;2024-03-08T11:17:25;19.75;;;17.30;;
75820;SDS011;64454;51.984;9.838;2024-03-08T11:20:11;19.92;;;17.77;;
75820;SDS011;64454;51.984;9.838;2024-03-08T11:22:47;21.35;;;17.33;;
75820;SDS011;64454;51.984;9.838;2024-03-08T11:25:32;21.47;;;17.10;;
75820;SDS011;64454;51.984;9.838;2024-03-08T11:28:07;19.40;;;16.50;;
75820;SDS011;64454;51.984;9.838;2024-03-08T11:30:43;19.57;;;16.80;;
75820;SDS011;64454;51.984;9.838;2024-03-08T11:33:12;23.15;;;16.33;;
75820;SDS011;64454;51.984;9.838;2024-03-08T11:35:39;21.38;;;17.50;;
75820;SDS011;64454;51.984;9.838;2024-03-08T11:38:07;23.45;;;18.48;;
75820;SDS011;64454;51.984;9.838;2024-03-08T11:43:02;19.25;;;17.15;;
75820;SDS011;64454;51.984;9.838;2024-03-08T11:45:32;22.48;;;18.33;;
75820;SDS011;64454;51.984;9.838;2024-03-08T11:48:01;20.70;;;16.40;;
75820;SDS011;64454;51.984;9.838;2024-03-08T11:50:29;22.88;;;17.73;;
75820;SDS011;64454;51.984;9.838;2024-03-08T11:52:59;22.42;;;18.20;;
75820;SDS011;64454;51.984;9.838;2024-03-08T11:55:27;24.80;;;18.55;;
75820;SDS011;64454;51.984;9.838;2024-03-08T11:57:59;23.10;;;17.87;;
75820;SDS011;64454;51.984;9.838;2024-03-08T12:00:27;19.85;;;17.40;;
75820;SDS011;64454;51.984;9.838;2024-03-08T12:03:03;20.90;;;17.15;;
75820;SDS011;64454;51.984;9.838;2024-03-08T12:05:31;23.55;;;18.52;;
75820;SDS011;64454;51.984;9.838;2024-03-08T12:07:58;22.95;;;17.92;;
75820;SDS011;64454;51.984;9.838;2024-03-08T12:10:25;22.85;;;18.05;;
75820;SDS011;64454;51.984;9.838;2024-03-08T12:12:53;23.40;;;17.90;;
75820;SDS011;64454;51.984;9.838;2024-03-08T12:15:23;22.00;;;17.42;;
75820;SDS011;64454;51.984;9.838;2024-03-08T12:17:49;24.42;;;18.45;;
75820;SDS011;64454;51.984;9.838;2024-03-08T12:20:18;25.23;;;19.23;;
75820;SDS011;64454;51.984;9.838;2024-03-08T12:22:47;23.35;;;18.17;;
75820;SDS011;64454;51.984;9.838;2024-03-08T12:25:14;21.90;;;18.50;;
75820;SDS011;64454;51.984;9.838;2024-03-08T12:27:41;20.60;;;17.87;;
75820;SDS011;64454;51.984;9.838;2024-03-08T12:30:16;22.38;;;18.15;;
75820;SDS011;64454;51.984;9.838;2024-03-08T12:32:48;24.03;;;18.30;;
75820;SDS011;64454;51.984;9.838;2024-03-08T12:35:19;21.85;;;17.75;;
75820;SDS011;64454;51.984;9.838;2024-03-08T12:37:47;19.35;;;16.95;;
75820;SDS011;64454;51.984;9.838;2024-03-08T12:40:16;21.20;;;17.65;;
75820;SDS011;64454;51.984;9.838;2024-03-08T12:42:43;23.63;;;18.20;;
75820;SDS011;64454;51.984;9.838;2024-03-08T12:45:10;21.42;;;18.45;;
75820;SDS011;64454;51.984;9.838;2024-03-08T12:47:37;22.15;;;17.60;;
75820;SDS011;64454;51.984;9.838;2024-03-08T12:50:03;22.35;;;18.52;;
75820;SDS011;64454;51.984;9.838;2024-03-08T12:52:30;21.15;;;16.95;;
75820;SDS011;64454;51.984;9.838;2024-03-08T12:54:56;23.13;;;17.55;;
75820;SDS011;64454;51.984;9.838;2024-03-08T12:57:22;20.63;;;17.23;;
75820;SDS011;64454;51.984;9.838;2024-03-08T12:59:52;22.00;;;17.67;;
75820;SDS011;64454;51.984;9.838;2024-03-08T13:02:19;21.15;;;18.20;;
75820;SDS011;64454;51.984;9.838;2024-03-08T13:04:46;22.77;;;18.00;;
75820;SDS011;64454;51.984;9.838;2024-03-08T13:07:20;21.02;;;18.17;;
75820;SDS011;64454;51.984;9.838;2024-03-08T13:09:48;20.13;;;17.92;;
75820;SDS011;64454;51.984;9.838;2024-03-08T13:12:14;20.35;;;17.75;;
75820;SDS011;64454;51.984;9.838;2024-03-08T13:14:40;20.40;;;18.20;;
75820;SDS011;64454;51.984;9.838;2024-03-08T13:17:07;22.65;;;18.85;;
75820;SDS011;64454;51.984;9.838;2024-03-08T13:19:35;22.30;;;19.27;;
75820;SDS011;64454;51.984;9.838;2024-03-08T13:22:04;19.48;;;17.48;;
75820;SDS011;64454;51.984;9.838;2024-03-08T13:24:30;20.10;;;17.67;;
75820;SDS011;64454;51.984;9.838;2024-03-08T13:26:56;22.85;;;18.98;;
75820;SDS011;64454;51.984;9.838;2024-03-08T13:29:23;21.27;;;18.52;;
75820;SDS011;64454;51.984;9.838;2024-03-08T13:31:49;21.27;;;17.65;;
75820;SDS011;64454;51.984;9.838;2024-03-08T13:34:17;19.70;;;16.55;;
75820;SDS011;64454;51.984;9.838;2024-03-08T13:36:43;20.77;;;18.00;;
75820;SDS011;64454;51.984;9.838;2024-03-08T13:39:12;20.70;;;18.30;;
75820;SDS011;64454;51.984;9.838;2024-03-08T13:41:40;20.67;;;18.10;;
75820;SDS011;64454;51.984;9.838;2024-03-08T13:44:07;20.60;;;17.52;;
75820;SDS011;64454;51.984;9.838;2024-03-08T13:46:33;21.93;;;18.20;;
75820;SDS011;64454;51.984;9.838;2024-03-08T13:49:03;21.00;;;17.90;;
75820;SDS011;64454;51.984;9.838;2024-03-08T13:51:31;21.30;;;18.60;;
75820;SDS011;64454;51.984;9.838;2024-03-08T13:53:57;20.10;;;18.00;;
75820;SDS011;64454;51.984;9.838;2024-03-08T13:56:26;21.92;;;18.92;;
75820;SDS011;64454;51.984;9.838;2024-03-08T13:58:52;20.60;;;18.40;;
75820;SDS011;64454;51.984;9.838;2024-03-08T14:01:21;21.30;;;19.00;;
75820;SDS011;64454;51.984;9.838;2024-03-08T14:03:47;21.40;;;17.60;;
75820;SDS011;64454;51.984;9.838;2024-03-08T14:06:13;21.75;;;18.90;;
75820;SDS011;64454;51.984;9.838;2024-03-08T14:08:39;22.02;;;18.17;;
75820;SDS011;64454;51.984;9.838;2024-03-08T14:11:06;20.85;;;18.08;;
75820;SDS011;64454;51.984;9.838;2024-03-08T14:13:41;21.98;;;19.30;;
75820;SDS011;64454;51.984;9.838;2024-03-08T14:16:10;22.60;;;18.38;;
75820;SDS011;64454;51.984;9.838;2024-03-08T14:18:36;20.65;;;18.25;;
75820;SDS011;64454;51.984;9.838;2024-03-08T14:21:02;23.73;;;19.25;;
75820;SDS011;64454;51.984;9.838;2024-03-08T14:23:29;20.65;;;18.45;;
75820;SDS011;64454;51.984;9.838;2024-03-08T14:25:55;21.93;;;19.17;;